Terminal Aerodrome Forecast
Issued by NWS Tampa Bay Area, FL

Home | Current Version | Previous Version | Text Only | Print | Product List | Glossary On
Versions: 1 2 3 4 5 6 7 8 9 10 11 12 13 14 15 16 17 18 19 20 21 22 23 24 25 26
000
FTUS42 KTBW 230538
TAFTPA
TAF
KTPA 230538Z 2306/2412 08006KT P6SM VCSH FEW040 BKN060 BKN120
     FM230800 10006KT P6SM VCSH SCT015 BKN025 OVC100
     FM231200 16007KT 5SM SHRA VCTS SCT015 BKN025CB OVC070
     FM231600 20008KT 6SM SHRA VCTS SCT020CB BKN035
     FM232000 01005KT 6SM SHRA VCTS SCT020CB BKN035
     FM240200 03005KT P6SM VCSH BKN020 OVC035=

USA.gov is the U.S. government's official web portal to all federal, state and local government web resources and services.